weather station
Area: 7197 km2
The highest point: Čupec (819 m.s.l.)
Total stations: 40
Stations online: 39
Stations offline: 1
Current weather
2°C

Meteorological map - weather stations in Jihomoravský

. The meteorological maps show weather information from WARIO weather stations

Weather stations Jihomoravský

 UpdatesNameStatusTemperatureHumidityWind speedWind direction
21.1.2021 09:14Olešnice2.3 °C88.3 %1.5 m/s NE
21.1.2021 09:14Archlebov3.4 °C90.2 %0.8 m/s SE
21.1.2021 09:14Boskovice4.1 °C81.6 %0.7 m/s N
21.1.2021 09:13Brno - Královo Pole2.0 °C87.1 %2.5 m/s SE
21.1.2021 09:13Brno - Líšeň1.5 °C86.3 %2.0 m/s SE
21.1.2021 09:13Brno - Vinohrady2.0 °C86.2 %1.4 m/s S
21.1.2021 09:14Brno - Střed2.3 °C88.1 %1.2 m/s W
21.1.2021 09:14Brno - Kníničky2.0 °C96.9 %1.2 m/s W
21.1.2021 09:14Býkovice1.1 °C98.2 %2.2 m/s NE
21.1.2021 09:14Bzenec8.0 °C58.2 %0.9 m/s W
28.12.2020 01:16Bítov-1.3 °C94.9 %0.0 m/s SE
21.1.2021 09:13Litobratřice1.8 °C86.2 %0.0 m/s S
21.1.2021 09:13Dobšice4.7 °C79.8 %1.3 m/s N
21.1.2021 09:14Drnholec-40.0 °C %0.0 m/s SE
21.1.2021 09:13Holubice3.5 °C89.9 %0.0 m/s SW
21.1.2021 09:14Moravany0.2 °C94.4 %0.0 m/s SW
21.1.2021 09:14Lomnice2.9 °C94.5 %0.0 m/s N
21.1.2021 09:13Dolní Dubňany1.2 °C94.4 %0.7 m/s E
21.1.2021 09:14Brno - Jih2.4 °C90.5 %1.5 m/s SE
21.1.2021 09:14Svatobořice7.8 °C70.5 %0.0 m/s E
21.1.2021 09:13Mikulov2.8 °C82.2 %1.4 m/s SE
21.1.2021 09:13Moravské Bránice1.8 °C88.8 %0.0 m/s N
21.1.2021 09:13Nebovidy1.5 °C85.1 %1.5 m/s E
21.1.2021 09:14Troubsko1.4 °C88.1 %0.0 m/s SE
21.1.2021 09:14Kravsko0.5 °C97.0 %0.6 m/s N
21.1.2021 09:13Pozořice2.6 °C95.0 %1.9 m/s E
21.1.2021 09:14Předklášteří1.2 °C95.1 %0.9 m/s E
21.1.2021 09:13Brno - Přízřenice2.0 °C88.0 %1.2 m/s NE
21.1.2021 09:14Skalice u Znojma3.1 °C100.0 %0.0 m/s E
21.1.2021 09:13Šlapanice4.1 °C83.0 %0.8 m/s S
21.1.2021 09:14Kuřim2.2 °C97.9 %0.0 m/s SE
21.1.2021 09:14Němčičky2.6 °C80.7 %0.0 m/s S
21.1.2021 09:13Veselí nad Moravou5.3 °C81.9 %1.9 m/s S
21.1.2021 09:13Veselí nad Moravou6.5 °C72.1 %0.0 m/s SW
21.1.2021 09:14Kněževes Veselka-0.3 °C96.4 %3.7 m/s SW
21.1.2021 09:14Vlasatice1.1 °C89.4 %1.5 m/s E
21.1.2021 09:14Vrbovec2.1 °C94.9 %0.0 m/s E
21.1.2021 09:13Rájec-Jestřebí2.3 °C99.7 %0.8 m/s SW
21.1.2021 09:13Žarošice3.5 °C80.6 %0.8 m/s SW
21.1.2021 09:14Brno - Královo Pole2.5 °C92.2 %0.9 m/s NW
Email notifications
Enter your email address to subscribe to notifications about news at warioweather.com. Your email address will not be used for any purpose other than sending these emails and will not be provided to any third party. The subscription can be ended at any time.
All data are only indicative. The portal administrator has no responsibility for potentially incorrect data and related consequences. Publishing or further sharing of content from www.warioweather.com is only allowed with written consent from WANET s.r.o.